Sittingbourne, United Kingdom
Current Conditions -  °F | °C
As of 4:20 PM on Friday 21 Nov 2014 (Local Time) from EGMC Reporting Station
Haze Haze  
Wind Chill:   Ceiling: Unl
Heat Index:   Visibility: 3mi
Dew Point:   Wind: 7mph
Humidity: 87%   Direction: 100°E
Pressure: 30"   Gusts: NA
Location:  51.34°N, 0.73°E
Report Text: EGMC 211620Z 10006KT 5000 HZ FEW011 09/07 Q1016
Loading
Personal Weather Stations






























Interactive Weather Map New forecast layout! Learn more

10-Day Weather Forecast

Advertisements
Track Severe Weather on mobile